createdAt,value
2018-05-03T00:00:47.622Z,7.97
2018-05-03T00:03:15.126Z,4.40
2018-05-03T00:05:42.604Z,10.05
2018-05-03T00:08:10.829Z,9.98
2018-05-03T00:10:38.650Z,9.85
2018-05-03T00:13:06.110Z,10.65
2018-05-03T00:15:33.609Z,13.80
2018-05-03T00:18:01.415Z,10.57
2018-05-03T00:20:29.641Z,13.55
2018-05-03T00:22:57.117Z,11.05
2018-05-03T00:25:24.902Z,9.85
2018-05-03T00:27:52.366Z,6.95
2018-05-03T00:30:20.620Z,8.68
2018-05-03T00:32:48.102Z,9.43
2018-05-03T00:35:15.588Z,10.07
2018-05-03T00:37:43.052Z,7.37
2018-05-03T00:40:10.875Z,12.30
2018-05-03T00:42:39.123Z,9.10
2018-05-03T00:45:06.710Z,8.43
2018-05-03T00:47:34.582Z,10.23
2018-05-03T00:50:02.813Z,18.37
2018-05-03T00:52:30.285Z,8.27
2018-05-03T00:54:58.074Z,11.90
2018-05-03T00:57:26.326Z,8.18
2018-05-03T00:59:53.830Z,10.45
2018-05-03T01:02:21.631Z,10.98
2018-05-03T01:04:49.849Z,9.25
2018-05-03T01:07:17.318Z,9.48
2018-05-03T01:09:45.122Z,12.65
2018-05-03T01:12:12.625Z,9.52
2018-05-03T01:14:40.861Z,8.43
2018-05-03T01:17:08.774Z,11.60
2018-05-03T01:19:36.367Z,9.65
2018-05-03T01:22:03.836Z,8.82
2018-05-03T01:24:31.642Z,12.20
2018-05-03T01:26:59.119Z,9.18
2018-05-03T01:29:26.601Z,11.75
2018-05-03T01:31:54.419Z,13.38
2018-05-03T01:34:22.670Z,9.57
2018-05-03T01:36:50.159Z,8.68
2018-05-03T01:39:18.734Z,9.35
2018-05-03T01:41:46.619Z,10.88
2018-05-03T01:44:14.868Z,7.55
2018-05-03T01:46:42.639Z,9.77
2018-05-03T01:49:10.107Z,9.50
2018-05-03T01:51:37.564Z,6.10
2018-05-03T01:54:06.147Z,7.18
2018-05-03T01:56:33.612Z,8.48
2018-05-03T01:59:01.840Z,11.63
2018-05-03T02:01:29.618Z,10.10
2018-05-03T02:03:57.477Z,7.78
2018-05-03T02:06:24.938Z,12.18
2018-05-03T02:08:52.671Z,15.43
2018-05-03T02:11:20.134Z,14.48
2018-05-03T02:13:48.022Z,7.80
2018-05-03T02:16:15.509Z,9.48
2018-05-03T02:18:43.734Z,9.80
2018-05-03T02:21:11.463Z,11.43
2018-05-03T02:23:39.422Z,8.55
2018-05-03T02:26:07.315Z,11.20
2018-05-03T02:28:34.809Z,9.35
2018-05-03T02:31:02.316Z,8.85
2018-05-03T02:33:30.009Z,10.73
2018-05-03T02:35:57.593Z,9.20
2018-05-03T02:38:26.251Z,7.45
2018-05-03T02:40:53.776Z,9.77
2018-05-03T02:43:21.645Z,9.73
2018-05-03T02:45:50.336Z,6.90
2018-05-03T02:48:17.805Z,8.27
2018-05-03T02:50:45.282Z,10.70
2018-05-03T02:53:13.086Z,7.32
2018-05-03T02:55:40.545Z,10.65
2018-05-03T02:58:20.670Z,7.87
2018-05-03T03:01:05.611Z,9.10
2018-05-03T03:03:51.228Z,7.15
2018-05-03T03:06:36.238Z,9.10
2018-05-03T03:09:22.523Z,5.57
2018-05-03T03:12:07.958Z,7.05
2018-05-03T03:14:53.870Z,5.55
2018-05-03T03:17:38.866Z,13.60
2018-05-03T03:34:01.171Z,5.75
2018-05-03T03:50:01.699Z,5.62
2018-05-03T03:52:29.570Z,12.98
2018-05-03T03:54:57.799Z,6.72
2018-05-03T03:57:25.613Z,14.63
2018-05-03T03:59:53.089Z,7.95
2018-05-03T04:02:20.567Z,8.00
2018-05-03T04:04:48.307Z,8.80
2018-05-03T04:07:15.810Z,10.07
2018-05-03T04:09:43.385Z,11.95
2018-05-03T04:12:11.988Z,12.55
2018-05-03T04:14:40.283Z,9.85
2018-05-03T04:17:07.763Z,13.23
2018-05-03T04:19:47.297Z,11.68
2018-05-03T04:22:26.792Z,12.27
2018-05-03T04:25:07.007Z,9.65
2018-05-03T04:27:34.477Z,8.25
2018-05-03T04:30:02.055Z,11.85
2018-05-03T04:32:30.632Z,8.15
2018-05-03T04:34:58.141Z,10.57
2018-05-03T04:37:25.606Z,10.82
2018-05-03T04:39:53.445Z,10.68
2018-05-03T04:42:21.003Z,9.02
2018-05-03T04:44:48.510Z,11.77
2018-05-03T04:47:16.593Z,11.43
2018-05-03T04:49:44.086Z,6.85
2018-05-03T04:52:12.168Z,12.82
2018-05-03T04:54:40.824Z,9.38
2018-05-03T04:57:09.075Z,7.68
2018-05-03T04:59:36.618Z,10.32
2018-05-03T05:02:04.117Z,10.48
2018-05-03T05:04:32.401Z,12.20
2018-05-03T05:07:00.635Z,10.13
2018-05-03T05:09:28.429Z,8.15
2018-05-03T05:11:56.658Z,11.88
2018-05-03T05:14:24.166Z,11.55
2018-05-03T05:16:52.951Z,7.40
2018-05-03T05:19:21.219Z,10.45
2018-05-03T05:21:48.697Z,6.97
2018-05-03T05:24:16.711Z,8.70
2018-05-03T05:26:44.132Z,9.52
2018-05-03T05:29:11.609Z,6.65
2018-05-03T05:31:39.117Z,10.30
2018-05-03T05:34:07.347Z,7.62
2018-05-03T05:36:34.858Z,6.95
2018-05-03T05:39:03.254Z,6.87
2018-05-03T05:41:31.394Z,7.72
2018-05-03T05:43:58.888Z,9.48
2018-05-03T05:46:26.733Z,8.82
2018-05-03T05:48:54.982Z,13.15
2018-05-03T05:51:22.520Z,10.68
2018-05-03T05:53:50.328Z,9.23
2018-05-03T05:56:18.563Z,7.85
2018-05-03T05:58:46.150Z,7.55
2018-05-03T06:01:13.998Z,10.07
2018-05-03T06:03:41.482Z,10.40
2018-05-03T06:06:09.023Z,8.38
2018-05-03T06:08:36.837Z,6.82
2018-05-03T06:11:04.314Z,5.75
2018-05-03T06:13:31.844Z,7.80
2018-05-03T06:15:59.603Z,7.00
2018-05-03T06:18:27.063Z,7.65
2018-05-03T06:20:54.563Z,5.25
2018-05-03T06:23:22.361Z,6.40
2018-05-03T06:25:50.694Z,9.25
2018-05-03T06:28:18.117Z,10.07
2018-05-03T06:30:45.863Z,8.13
2018-05-03T06:33:14.109Z,8.05
2018-05-03T06:35:41.600Z,3.83
2018-05-03T06:38:10.233Z,9.00
2018-05-03T06:40:37.736Z,7.80
2018-05-03T06:43:05.970Z,5.80
2018-05-03T06:45:33.847Z,8.90
2018-05-03T06:48:01.311Z,7.07
2018-05-03T06:50:28.792Z,5.83
2018-05-03T06:52:57.039Z,2.90
2018-05-03T06:55:24.513Z,4.60
2018-05-03T06:57:52.068Z,6.80
2018-05-03T07:00:19.598Z,6.97
2018-05-03T07:02:47.074Z,6.03
2018-05-03T07:05:14.629Z,6.03
2018-05-03T07:07:42.426Z,9.17
2018-05-03T07:10:09.949Z,8.47
2018-05-03T07:12:37.419Z,7.20
2018-05-03T07:15:04.893Z,3.93
2018-05-03T07:17:33.134Z,4.97
2018-05-03T07:20:00.651Z,5.47
2018-05-03T07:22:28.137Z,7.87
2018-05-03T07:24:55.633Z,5.77
2018-05-03T07:27:23.887Z,5.97
2018-05-03T07:29:51.370Z,5.70
2018-05-03T07:32:18.873Z,6.67
2018-05-03T07:34:46.487Z,4.40
2018-05-03T07:37:14.729Z,4.87
2018-05-03T07:39:42.214Z,8.67
2018-05-03T07:42:09.735Z,4.30
2018-05-03T07:44:37.250Z,6.47
2018-05-03T07:47:05.511Z,6.43
2018-05-03T07:49:33.132Z,4.20
2018-05-03T07:52:00.610Z,5.07
2018-05-03T07:54:28.088Z,4.10
2018-05-03T07:56:56.505Z,7.37
2018-05-03T07:59:24.347Z,6.20
2018-05-03T08:01:52.583Z,4.00
2018-05-03T08:04:20.076Z,3.13
2018-05-03T08:06:48.831Z,5.73
2018-05-03T08:09:16.597Z,4.03
2018-05-03T08:11:44.087Z,2.73
2018-05-03T08:14:12.325Z,2.60
2018-05-03T08:16:39.821Z,5.03
2018-05-03T08:19:07.354Z,3.87
2018-05-03T08:21:34.885Z,3.60
2018-05-03T08:24:02.407Z,4.67
2018-05-03T08:26:29.964Z,3.03
2018-05-03T08:28:57.476Z,7.40
2018-05-03T08:31:24.977Z,4.37
2018-05-03T08:33:52.869Z,4.93
2018-05-03T08:36:20.369Z,6.23
2018-05-03T08:38:47.834Z,4.60
2018-05-03T08:41:16.112Z,3.73
2018-05-03T08:43:44.366Z,4.33
2018-05-03T08:46:11.912Z,6.40
2018-05-03T08:48:39.450Z,4.47
2018-05-03T08:51:06.957Z,4.80
2018-05-03T08:53:35.203Z,3.63
2018-05-03T08:56:02.686Z,4.60
2018-05-03T08:58:30.168Z,3.30
2018-05-03T09:00:58.409Z,2.60
2018-05-03T09:03:26.673Z,6.20
2018-05-03T09:05:54.472Z,3.40
2018-05-03T09:08:21.965Z,4.60
2018-05-03T09:10:49.474Z,5.33
2018-05-03T09:13:17.342Z,6.73
2018-05-03T09:15:44.898Z,5.30
2018-05-03T09:18:12.403Z,2.77
2018-05-03T09:20:40.252Z,3.23
2018-05-03T09:23:07.712Z,2.97
2018-05-03T09:25:35.193Z,6.50
2018-05-03T09:28:02.995Z,20.90
2018-05-03T09:30:30.505Z,7.67
2018-05-03T09:32:57.986Z,7.50
2018-05-03T09:35:25.789Z,5.90
2018-05-03T09:37:54.027Z,3.00
2018-05-03T09:40:21.526Z,3.87
2018-05-03T09:42:49.394Z,4.87
2018-05-03T09:45:17.633Z,6.30
2018-05-03T09:47:45.117Z,6.03
2018-05-03T09:50:12.602Z,5.47
2018-05-03T09:52:40.142Z,2.93
2018-05-03T09:55:07.621Z,5.40
2018-05-03T09:57:35.378Z,4.27
2018-05-03T10:00:02.918Z,3.20
2018-05-03T10:02:31.467Z,3.40
2018-05-03T10:04:59.297Z,3.43
2018-05-03T10:07:26.802Z,3.93
2018-05-03T10:09:54.297Z,4.93
2018-05-03T10:12:21.806Z,2.20
2018-05-03T10:14:50.082Z,4.33
2018-05-03T10:17:17.866Z,2.10
2018-05-03T10:19:45.633Z,2.53
2018-05-03T10:22:13.955Z,4.70
2018-05-03T10:24:41.447Z,4.93
2018-05-03T10:27:08.943Z,3.53
2018-05-03T10:29:37.220Z,2.10
2018-05-03T10:32:04.706Z,2.17
2018-05-03T10:34:32.204Z,3.03
2018-05-03T10:36:59.691Z,2.37
2018-05-03T10:39:27.970Z,2.73
2018-05-03T10:41:55.472Z,1.70
2018-05-03T10:44:22.966Z,3.03
2018-05-03T10:46:50.472Z,2.23
2018-05-03T10:49:17.962Z,2.10
2018-05-03T10:51:45.441Z,4.37
2018-05-03T10:54:13.739Z,3.93
2018-05-03T10:56:41.982Z,5.37
2018-05-03T10:59:09.473Z,4.20
2018-05-03T11:01:36.946Z,2.63
2018-05-03T11:04:04.438Z,4.97
2018-05-03T11:06:31.938Z,6.23
2018-05-03T11:08:59.522Z,4.53
2018-05-03T11:11:26.994Z,3.03
2018-05-03T11:13:54.466Z,5.37
2018-05-03T11:16:21.943Z,4.00
2018-05-03T11:18:50.197Z,3.60
2018-05-03T11:21:17.678Z,2.67
2018-05-03T11:23:45.161Z,5.97
2018-05-03T11:26:12.651Z,7.50
2018-05-03T11:28:40.125Z,3.33
2018-05-03T11:31:07.639Z,5.70
2018-05-03T11:33:35.122Z,4.80
2018-05-03T11:36:02.613Z,4.23
2018-05-03T11:38:30.108Z,4.70
2018-05-03T11:40:57.599Z,3.53
2018-05-03T11:43:25.071Z,4.50
2018-05-03T11:45:52.550Z,2.27
2018-05-03T11:48:20.049Z,2.83
2018-05-03T11:50:47.530Z,6.40
2018-05-03T11:53:15.070Z,5.93
2018-05-03T11:55:42.550Z,4.20
2018-05-03T11:58:10.012Z,3.03
2018-05-03T12:00:37.511Z,3.23
2018-05-03T12:03:05.015Z,2.43
2018-05-03T12:05:32.510Z,11.83
2018-05-03T12:08:00.739Z,18.67
2018-05-03T12:10:28.243Z,1.20
2018-05-03T12:12:55.716Z,2.40
2018-05-03T12:15:23.969Z,6.53
2018-05-03T12:17:52.299Z,3.07
2018-05-03T12:20:19.790Z,2.97
2018-05-03T12:22:47.270Z,3.20
2018-05-03T12:25:15.519Z,3.83
2018-05-03T12:27:42.994Z,5.20
2018-05-03T12:30:11.272Z,3.17
2018-05-03T12:32:40.520Z,4.67
2018-05-03T12:35:07.986Z,2.93
2018-05-03T12:37:35.457Z,3.63
2018-05-03T12:40:03.015Z,5.07
2018-05-03T12:42:30.552Z,2.43
2018-05-03T12:44:58.020Z,2.00
2018-05-03T12:47:25.556Z,3.53
2018-05-03T12:49:53.094Z,2.27
2018-05-03T12:52:21.336Z,3.30
2018-05-03T12:54:49.237Z,2.27
2018-05-03T12:57:16.728Z,2.27
2018-05-03T12:59:44.191Z,2.33
2018-05-03T13:02:11.719Z,4.40
2018-05-03T13:04:39.227Z,2.50
2018-05-03T13:07:06.686Z,7.73
2018-05-03T13:09:34.551Z,2.77
2018-05-03T13:12:02.058Z,2.60
2018-05-03T13:14:29.535Z,2.63
2018-05-03T13:16:57.346Z,5.93
2018-05-03T13:19:24.834Z,2.03
2018-05-03T13:21:52.329Z,2.70
2018-05-03T13:24:19.863Z,6.37
2018-05-03T13:26:47.575Z,2.37
2018-05-03T13:29:15.867Z,3.23
2018-05-03T13:31:44.131Z,2.70
2018-05-03T13:34:11.605Z,3.53
2018-05-03T13:36:39.118Z,2.13
2018-05-03T13:39:06.600Z,3.60
2018-05-03T13:41:34.076Z,3.10
2018-05-03T13:44:02.326Z,4.53
2018-05-03T13:46:30.138Z,1.17
2018-05-03T13:48:57.607Z,5.70
2018-05-03T13:51:25.108Z,2.10
2018-05-03T13:53:53.394Z,2.77
2018-05-03T13:56:20.871Z,2.57
2018-05-03T13:58:48.390Z,1.97
2018-05-03T14:01:15.947Z,3.27
2018-05-03T14:03:43.524Z,1.80
2018-05-03T14:06:11.003Z,1.33
2018-05-03T14:08:40.005Z,2.97
2018-05-03T14:11:07.491Z,2.27
2018-05-03T14:13:35.077Z,2.00
2018-05-03T14:16:02.560Z,1.87
2018-05-03T14:18:30.802Z,3.50
2018-05-03T14:20:58.381Z,2.90
2018-05-03T14:23:26.551Z,1.90
2018-05-03T14:25:54.035Z,1.80
2018-05-03T14:28:22.284Z,3.03
2018-05-03T14:30:49.782Z,1.50
2018-05-03T14:33:17.257Z,4.67
2018-05-03T14:35:45.090Z,1.73
2018-05-03T14:38:12.616Z,1.77
2018-05-03T14:40:40.114Z,1.80
2018-05-03T14:43:07.600Z,1.40
2018-05-03T14:45:35.112Z,2.03
2018-05-03T14:48:03.402Z,2.30
2018-05-03T14:50:30.902Z,1.50
2018-05-03T14:52:59.311Z,2.07
2018-05-03T14:55:26.780Z,2.73
2018-05-03T14:57:55.052Z,2.57
2018-05-03T15:00:22.551Z,2.20
2018-05-03T15:02:50.026Z,2.10
2018-05-03T15:05:17.544Z,2.17
2018-05-03T15:07:45.060Z,4.40
2018-05-03T15:10:12.643Z,1.53
2018-05-03T15:12:40.250Z,3.03
2018-05-03T15:15:08.504Z,1.93
2018-05-03T15:17:35.997Z,3.33
2018-05-03T15:20:03.492Z,1.97
2018-05-03T15:22:30.977Z,2.53
2018-05-03T15:24:58.479Z,2.97
2018-05-03T15:27:25.965Z,4.50
2018-05-03T15:29:54.232Z,4.03
2018-05-03T15:32:22.480Z,4.63
2018-05-03T15:34:50.033Z,3.07
2018-05-03T15:37:17.526Z,1.57
2018-05-03T15:39:45.790Z,3.27
2018-05-03T15:42:13.288Z,3.40
2018-05-03T15:44:40.887Z,1.43
2018-05-03T15:47:09.173Z,1.57
2018-05-03T15:49:36.987Z,1.57
2018-05-03T15:52:04.495Z,3.07
2018-05-03T15:54:32.002Z,2.03
2018-05-03T15:56:59.853Z,4.70
2018-05-03T15:59:28.087Z,2.30
2018-05-03T16:01:55.575Z,1.93
2018-05-03T16:04:23.183Z,2.63
2018-05-03T16:06:50.659Z,2.87
2018-05-03T16:09:18.171Z,1.80
2018-05-03T16:11:46.033Z,2.93
2018-05-03T16:14:13.558Z,1.93
2018-05-03T16:16:41.015Z,2.05
2018-05-03T16:19:08.794Z,2.03
2018-05-03T16:21:37.040Z,2.37
2018-05-03T16:24:04.538Z,1.60
2018-05-03T16:26:32.786Z,2.30
2018-05-03T16:29:00.266Z,5.75
2018-05-03T16:31:28.506Z,1.90
2018-05-03T16:33:56.309Z,4.25
2018-05-03T16:36:24.551Z,2.70
2018-05-03T16:38:52.034Z,2.70
2018-05-03T16:41:20.617Z,3.10
2018-05-03T16:43:48.853Z,1.45
2018-05-03T16:46:16.733Z,3.78
2018-05-03T16:48:44.908Z,1.42
2018-05-03T16:51:12.420Z,3.75
2018-05-03T16:53:39.923Z,2.90
2018-05-03T16:56:07.707Z,3.45
2018-05-03T16:58:35.946Z,5.43
2018-05-03T17:01:03.437Z,2.45
2018-05-03T17:03:31.744Z,3.97
2018-05-03T17:05:59.623Z,2.62
2018-05-03T17:08:28.234Z,3.28
2018-05-03T17:10:55.744Z,2.58
2018-05-03T17:13:23.238Z,1.60
2018-05-03T17:15:51.121Z,3.15
2018-05-03T17:18:19.646Z,4.85
2018-05-03T17:20:48.427Z,2.75
2018-05-03T17:23:16.666Z,2.78
2018-05-03T17:25:44.847Z,3.12
2018-05-03T17:28:12.327Z,3.30
2018-05-03T17:30:40.594Z,3.70
2018-05-03T17:33:08.811Z,2.20
2018-05-03T17:35:37.068Z,1.98
2018-05-03T17:38:05.005Z,1.58
2018-05-03T17:40:32.522Z,3.33
2018-05-03T17:43:00.450Z,1.20
2018-05-03T17:45:28.699Z,2.12
2018-05-03T17:47:56.494Z,3.60
2018-05-03T17:50:24.759Z,3.72
2018-05-03T17:52:53.002Z,1.73
2018-05-03T17:55:20.918Z,3.35
2018-05-03T17:57:48.791Z,2.55
2018-05-03T18:00:16.284Z,1.25
2018-05-03T18:02:44.146Z,2.78
2018-05-03T18:05:11.692Z,2.00
2018-05-03T18:07:39.990Z,2.80
2018-05-03T18:10:07.786Z,3.15
2018-05-03T18:12:35.270Z,4.82
2018-05-03T18:15:02.770Z,4.15
2018-05-03T18:17:30.639Z,3.10
2018-05-03T18:19:58.507Z,4.43
2018-05-03T18:22:27.511Z,1.90
2018-05-03T18:24:55.416Z,4.95
2018-05-03T18:27:22.898Z,2.97
2018-05-03T18:29:50.372Z,4.30
2018-05-03T18:32:18.191Z,2.65
2018-05-03T18:34:46.057Z,4.30
2018-05-03T18:37:14.009Z,2.60
2018-05-03T18:39:41.524Z,4.65
2018-05-03T18:42:09.433Z,2.45
2018-05-03T18:44:37.429Z,7.53
2018-05-03T18:47:06.139Z,2.58
2018-05-03T18:49:33.722Z,3.72
2018-05-03T18:52:01.618Z,3.45
2018-05-03T18:54:29.448Z,6.70
2018-05-03T18:56:56.930Z,3.95
2018-05-03T18:59:24.399Z,2.67
2018-05-03T19:01:52.278Z,2.42
2018-05-03T19:04:19.891Z,2.65
2018-05-03T19:06:47.358Z,3.72
2018-05-03T19:09:15.273Z,4.15
2018-05-03T19:11:42.834Z,2.70
2018-05-03T19:14:10.996Z,3.35
2018-05-03T19:16:39.342Z,4.93
2018-05-03T19:19:06.785Z,2.47
2018-05-03T19:21:34.314Z,3.53
2018-05-03T19:24:02.056Z,4.80
2018-05-03T19:26:29.556Z,3.85
2018-05-03T19:28:57.784Z,4.90
2018-05-03T19:31:25.282Z,3.95
2018-05-03T19:33:53.188Z,2.72
2018-05-03T19:36:20.650Z,3.00
2018-05-03T19:38:49.238Z,3.08
2018-05-03T19:41:17.475Z,2.65
2018-05-03T19:43:44.965Z,4.45
2018-05-03T19:46:12.858Z,4.45
2018-05-03T19:48:40.326Z,3.58
2018-05-03T19:51:07.846Z,2.70
2018-05-03T19:53:36.418Z,4.68
2018-05-03T19:56:03.897Z,3.20
2018-05-03T19:58:31.798Z,3.70
2018-05-03T20:00:59.619Z,3.35
2018-05-03T20:03:27.966Z,6.40
2018-05-03T20:05:55.435Z,5.00
2018-05-03T20:08:22.963Z,3.55
2018-05-03T20:10:50.533Z,5.35
2018-05-03T20:13:19.151Z,3.92
2018-05-03T20:15:47.471Z,4.10
2018-05-03T20:18:16.112Z,3.00
2018-05-03T20:20:43.752Z,2.22
2018-05-03T20:23:12.094Z,5.72
2018-05-03T20:25:39.606Z,6.12
2018-05-03T20:28:07.955Z,7.28
2018-05-03T20:30:35.485Z,5.00
2018-05-03T20:33:02.976Z,3.92
2018-05-03T20:35:30.875Z,3.20
2018-05-03T20:37:58.788Z,5.25
2018-05-03T20:40:26.648Z,3.65
2018-05-03T20:42:54.147Z,4.50
2018-05-03T20:45:22.041Z,4.03
2018-05-03T20:47:49.526Z,3.75
2018-05-03T20:50:17.396Z,3.80
2018-05-03T20:52:45.709Z,4.28
2018-05-03T20:55:13.183Z,4.70
2018-05-03T20:57:42.844Z,6.90
2018-05-03T21:00:10.323Z,4.72
2018-05-03T21:02:39.317Z,5.22
2018-05-03T21:05:06.840Z,5.00
2018-05-03T21:07:34.722Z,4.87
2018-05-03T21:10:02.226Z,7.15
2018-05-03T21:12:30.256Z,4.57
2018-05-03T21:14:57.797Z,4.72
2018-05-03T21:17:25.327Z,5.22
2018-05-03T21:19:53.225Z,7.55
2018-05-03T21:22:20.705Z,7.03
2018-05-03T21:24:48.177Z,5.50
2018-05-03T21:27:16.084Z,6.70
2018-05-03T21:29:43.933Z,8.18
2018-05-03T21:32:12.158Z,7.80
2018-05-03T21:34:39.685Z,5.87
2018-05-03T21:37:08.334Z,3.90
2018-05-03T21:39:35.765Z,8.27
2018-05-03T21:42:03.218Z,7.07
2018-05-03T21:44:31.006Z,6.00
2018-05-03T21:46:58.858Z,5.07
2018-05-03T21:49:26.358Z,4.40
2018-05-03T21:51:54.210Z,5.70
2018-05-03T21:54:22.098Z,7.75
2018-05-03T21:56:49.972Z,6.37
2018-05-03T21:59:18.008Z,4.85
2018-05-03T22:01:46.237Z,9.30
2018-05-03T22:04:14.154Z,5.85
2018-05-03T22:06:42.037Z,8.15
2018-05-03T22:09:09.897Z,6.50
2018-05-03T22:11:38.139Z,6.30
2018-05-03T22:14:05.942Z,5.12
2018-05-03T22:16:33.426Z,5.75
2018-05-03T22:19:00.879Z,8.43
2018-05-03T22:21:28.744Z,5.65
2018-05-03T22:23:56.629Z,5.75
2018-05-03T22:26:24.906Z,7.07
2018-05-03T22:28:52.752Z,6.35
2018-05-03T22:31:20.199Z,8.27
2018-05-03T22:33:47.678Z,7.65
2018-05-03T22:36:15.157Z,7.22
2018-05-03T22:38:43.029Z,7.85
2018-05-03T22:41:10.548Z,5.50
2018-05-03T22:43:39.194Z,6.10
2018-05-03T22:46:07.434Z,10.52
2018-05-03T22:48:35.308Z,6.72
2018-05-03T22:51:03.096Z,10.30
2018-05-03T22:53:31.329Z,6.72
2018-05-03T22:55:58.826Z,8.18
2018-05-03T22:58:27.330Z,10.02
2018-05-03T23:00:54.810Z,11.23
2018-05-03T23:03:22.681Z,9.55
2018-05-03T23:05:50.413Z,7.97
2018-05-03T23:08:18.297Z,11.45
2018-05-03T23:10:45.767Z,10.10
2018-05-03T23:13:13.589Z,12.48
2018-05-03T23:15:41.822Z,9.55
2018-05-03T23:18:09.681Z,7.75
2018-05-03T23:20:37.442Z,13.75
2018-05-03T23:23:04.904Z,8.90
2018-05-03T23:25:32.384Z,9.50
2018-05-03T23:28:00.277Z,6.55
2018-05-03T23:30:28.570Z,8.55
2018-05-03T23:32:55.978Z,13.95
2018-05-03T23:35:23.806Z,7.45
2018-05-03T23:37:51.267Z,10.30
2018-05-03T23:40:19.228Z,10.05
2018-05-03T23:42:47.559Z,9.70
2018-05-03T23:45:15.446Z,8.60
2018-05-03T23:47:43.303Z,6.70
2018-05-03T23:50:11.214Z,8.25
2018-05-03T23:52:38.766Z,10.25
2018-05-03T23:55:06.232Z,8.45
2018-05-03T23:57:33.738Z,9.30
